METAR Data
IDs: Format: Raw Decoded Include TAF

Data at: 2224 UTC 24 Mar 2019

K5C1 242215Z AUTO 13005KT 10SM SCT034 24/16 A3003 RMK AO1
K5C1 242155Z AUTO 18006KT 10SM SCT034 24/16 A3003 RMK AO1
K5C1 242135Z AUTO 21005KT 10SM BKN032 25/16 A3004 RMK AO1
K5C1 242115Z AUTO 18004KT 10SM SCT030 24/16 A3005 RMK AO1
K5C1 242055Z AUTO 15003KT 10SM SCT030 23/16 A3005 RMK AO1
K5C1 242035Z AUTO 21006KT 10SM SCT028 23/16 A3006 RMK AO1
K5C1 242015Z AUTO 21007KT 10SM BKN026 23/16 A3006 RMK AO1
K5C1 241955Z AUTO 17005KT 10SM OVC024 22/16 A3007 RMK AO1
K5C1 241935Z AUTO 18006KT 10SM OVC024 21/16 A3008 RMK AO1
K5C1 241915Z AUTO 23007KT 10SM OVC022 21/16 A3009 RMK AO1
K5C1 241855Z AUTO 17005KT 10SM OVC018 21/17 A3010 RMK AO1
K5C1 241835Z AUTO 20007KT 10SM OVC016 20/17 A3011 RMK AO1
K5C1 241815Z AUTO 21004KT 10SM OVC014 19/16 A3012 RMK AO1
K5C1 241755Z AUTO 22005KT 10SM OVC012 18/17 A3013 RMK AO1
K5C1 241735Z AUTO 21008KT 10SM BKN009 OVC012 18/17 A3012 RMK AO1
K5C1 241715Z AUTO 20006KT 10SM OVC007 17/17 A3013 RMK AO1
K5C1 241655Z AUTO 18006KT 10SM OVC007 17/17 A3013 RMK AO1
K5C1 241635Z AUTO 20005KT 10SM OVC007 17/17 A3014 RMK AO1
K5C1 241615Z AUTO 18005KT 10SM BKN007 OVC011 17/17 A3014 RMK AO1
K5C1 241555Z AUTO 19005KT 10SM OVC009 17/17 A3014 RMK AO1
K5C1 241535Z AUTO 21006KT 10SM OVC007 17/17 A3014 RMK AO1
K5C1 241515Z AUTO 19006KT 7SM OVC005 17/17 A3013 RMK AO1
K5C1 241455Z AUTO 18004KT 5SM OVC005 16/16 A3013 RMK AO1
K5C1 241435Z AUTO 18006KT 5SM OVC005 16/16 A3013 RMK AO1
K5C1 241415Z AUTO 18005KT 4SM OVC007 16/16 A3012 RMK AO1
K5C1 241355Z AUTO 20008KT 5SM OVC007 16/16 A3012 RMK AO1
K5C1 241335Z AUTO 18006KT 5SM OVC007 16/16 A3011 RMK AO1
K5C1 241315Z AUTO 19007KT 5SM OVC007 16/16 A3010 RMK AO1
K5C1 241255Z AUTO 18005KT 4SM OVC004 16/16 A3009 RMK AO1
K5C1 241235Z AUTO 19003KT 4SM OVC004 16/16 A3009 RMK AO1
K5C1 241215Z AUTO 19004KT 5SM OVC006 16/16 A3009 RMK AO1
K5C1 241155Z AUTO 19004KT 5SM OVC008 17/17 A3008 RMK AO1
K5C1 241135Z AUTO 19005KT 10SM OVC008 17/17 A3007 RMK AO1
K5C1 241115Z AUTO 19006KT 10SM OVC008 17/17 A3008 RMK AO1
K5C1 241055Z AUTO 17008KT 10SM OVC008 17/16 A3007 RMK AO1
K5C1 241035Z AUTO 17007KT 10SM OVC008 17/16 A3007 RMK AO1
K5C1 241015Z AUTO 18005KT 10SM OVC010 17/16 A3007 RMK AO1
K5C1 240955Z AUTO 18006KT 10SM OVC010 17/17 A3007 RMK AO1
K5C1 240935Z AUTO 18008KT 10SM OVC008 17/17 A3007 RMK AO1
K5C1 240915Z AUTO 19006KT 10SM OVC008 17/17 A3006 RMK AO1
K5C1 240855Z AUTO 18007KT 10SM OVC008 17/17 A3006 RMK AO1
K5C1 240835Z AUTO 19005KT 10SM OVC010 17/16 A3006 RMK AO1
K5C1 240815Z AUTO 19006KT 10SM OVC010 17/16 A3007 RMK AO1
K5C1 240755Z AUTO 19007KT 10SM OVC012 17/16 A3007 RMK AO1
K5C1 240735Z AUTO 19007KT 10SM OVC012 17/16 A3008 RMK AO1
K5C1 240715Z AUTO 18005KT 10SM OVC012 17/16 A3007 RMK AO1
K5C1 240655Z AUTO 19008KT 10SM OVC012 17/16 A3007 RMK AO1
K5C1 240635Z AUTO 19006G16KT 10SM OVC010 17/16 A3008 RMK AO1
K5C1 240615Z AUTO 18008KT 10SM OVC010 17/16 A3008 RMK AO1
K5C1 240555Z AUTO 18009KT 10SM OVC010 17/16 A3008 RMK AO1
K5C1 240535Z AUTO 19008G14KT 10SM OVC010 17/16 A3008 RMK AO1
K5C1 240515Z AUTO 18011G15KT 150V210 10SM OVC010 17/16 A3009 RMK AO1
K5C1 240455Z AUTO 17009G14KT 10SM OVC012 17/16 A3008 RMK AO1
K5C1 240435Z AUTO 18009G14KT 10SM OVC012 17/16 A3009 RMK AO1
K5C1 240415Z AUTO 17007KT 10SM OVC012 17/16 A3009 RMK AO1
K5C1 240355Z AUTO 17010KT 10SM OVC014 17/15 A3010 RMK AO1
K5C1 240335Z AUTO 17011G16KT 10SM OVC016 17/15 A3009 RMK AO1
K5C1 240315Z AUTO 17011G16KT 10SM OVC016 18/15 A3009 RMK AO1
K5C1 240255Z AUTO 16007G15KT 10SM OVC016 18/15 A3008 RMK AO1
K5C1 240235Z AUTO 16008G15KT 10SM OVC018 18/15 A3008 RMK AO1
K5C1 240215Z AUTO 17009KT 10SM OVC016 18/15 A3008 RMK AO1
K5C1 240155Z AUTO 16004KT 10SM OVC018 18/16 A3008 RMK AO1
K5C1 240135Z AUTO 17008KT 10SM OVC018 18/16 A3008 RMK AO1
K5C1 240115Z AUTO 15007KT 10SM OVC018 18/16 A3007 RMK AO1
K5C1 240055Z AUTO 16008KT 10SM OVC018 18/16 A3006 RMK AO1
K5C1 240035Z AUTO 15005KT 10SM OVC018 18/16 A3005 RMK AO1
K5C1 240015Z AUTO 15006KT 10SM OVC018 18/17 A3005 RMK AO1
K5C1 232355Z AUTO 14009KT 10SM OVC018 18/17 A3005 RMK AO1
K5C1 232335Z AUTO 16008KT 10SM BKN018 BKN024 OVC031 19/17 A3004 RMK AO1
K5C1 232315Z AUTO 15005KT 10SM SCT026 BKN033 OVC048 18/17 A3004 RMK AO1
K5C1 232255Z AUTO 16006KT 10SM SCT019 BKN026 OVC047 18/17 A3004 RMK AO1
K5C1 232235Z AUTO 15006KT 10SM BKN021 OVC028 19/16 A3003 RMK AO1
K5C1 232215Z AUTO 16005KT 10SM SCT023 OVC030 19/16 A3003 RMK AO1
K5C1 232155Z AUTO 18006KT 10SM BKN024 OVC028 20/16 A3004 RMK AO1
K5C1 232135Z AUTO 15009KT 10SM BKN022 BKN027 OVC037 20/16 A3004 RMK AO1
K5C1 232115Z AUTO 19008KT 10SM SCT024 BKN029 OVC050 20/16 A3005 RMK AO1
K5C1 232055Z AUTO 19009G15KT 150V210 10SM BKN024 OVC029 20/16 A3006 RMK AO1
K5C1 232035Z AUTO 19008KT 150V210 10SM BKN022 OVC029 20/15 A3006 RMK AO1
K5C1 232015Z AUTO 18009G14KT 140V210 10SM BKN020 OVC028 20/16 A3007 RMK AO1
K5C1 231955Z AUTO 17009KT 10SM OVC020 19/15 A3008 RMK AO1
K5C1 231935Z AUTO 19006KT 10SM OVC020 19/16 A3008 RMK AO1
K5C1 231915Z AUTO 18004KT 10SM OVC018 19/15 A3008 RMK AO1
K5C1 231855Z AUTO 19008KT 10SM OVC018 18/15 A3009 RMK AO1
K5C1 231835Z AUTO 18009G14KT 10SM OVC016 18/15 A3009 RMK AO1
K5C1 231815Z AUTO 18007G15KT 10SM OVC016 18/15 A3009 RMK AO1
K5C1 231755Z AUTO 18009KT 10SM OVC014 18/15 A3010 RMK AO1
K5C1 231735Z AUTO 20008KT 10SM OVC014 18/15 A3011 RMK AO1
K5C1 231715Z AUTO 19008G14KT 10SM OVC014 18/15 A3011 RMK AO1
K5C1 231655Z AUTO 18009KT 10SM OVC014 18/15 A3011 RMK AO1
K5C1 231635Z AUTO 19011G14KT 10SM OVC012 18/15 A3010 RMK AO1
K5C1 231615Z AUTO 17009G14KT 10SM OVC012 17/15 A3010 RMK AO1
K5C1 231555Z AUTO 18009KT 10SM OVC012 17/15 A3010 RMK AO1
K5C1 231535Z AUTO 17010KT 10SM OVC012 16/15 A3010 RMK AO1
K5C1 231515Z AUTO 18006KT 10SM OVC012 16/15 A3010 RMK AO1
K5C1 231455Z AUTO 18007KT 10SM OVC012 16/15 A3010 RMK AO1
K5C1 231435Z AUTO 18007KT 10SM OVC010 16/14 A3010 RMK AO1
K5C1 231415Z AUTO 17008KT 10SM OVC010 16/14 A3009 RMK AO1
K5C1 231355Z AUTO 18007KT 10SM OVC010 16/14 A3010 RMK AO1
K5C1 231335Z AUTO 18006KT 10SM OVC010 15/14 A3009 RMK AO1
K5C1 231315Z AUTO 18003KT 10SM OVC012 15/13 A3008 RMK AO1
K5C1 231255Z AUTO 18005KT 10SM OVC012 15/13 A3008 RMK AO1
K5C1 231235Z AUTO 19006KT 10SM OVC012 15/13 A3007 RMK AO1
K5C1 231215Z AUTO 20006KT 10SM OVC012 15/13 A3007 RMK AO1
K5C1 231155Z AUTO 19006KT 10SM OVC012 15/13 A3006 RMK AO1
K5C1 231135Z AUTO 19004KT 10SM OVC012 15/13 A3006 RMK AO1
K5C1 231115Z AUTO 18004KT 10SM OVC012 15/13 A3006 RMK AO1
K5C1 231055Z AUTO 17005KT 10SM OVC014 15/12 A3005 RMK AO1
K5C1 231035Z AUTO 18004KT 10SM OVC014 15/12 A3005 RMK AO1